sensor_id;sensor_type;location;lat;lon;timestamp;P1;durP1;ratioP1;P2;durP2;ratioP2
85917;SDS011;76456;49.310;8.632;2024-03-22T00:01:10;8.60;;;3.15;;
85917;SDS011;76456;49.310;8.632;2024-03-22T00:03:36;8.18;;;3.60;;
85917;SDS011;76456;49.310;8.632;2024-03-22T00:06:01;7.20;;;2.90;;
85917;SDS011;76456;49.310;8.632;2024-03-22T00:08:27;7.13;;;3.08;;
85917;SDS011;76456;49.310;8.632;2024-03-22T00:10:52;7.07;;;2.80;;
85917;SDS011;76456;49.310;8.632;2024-03-22T00:13:18;5.15;;;2.50;;
85917;SDS011;76456;49.310;8.632;2024-03-22T00:15:43;5.93;;;3.47;;
85917;SDS011;76456;49.310;8.632;2024-03-22T00:18:09;5.38;;;2.80;;
85917;SDS011;76456;49.310;8.632;2024-03-22T00:20:35;7.05;;;2.75;;
85917;SDS011;76456;49.310;8.632;2024-03-22T00:23:00;5.82;;;3.00;;
85917;SDS011;76456;49.310;8.632;2024-03-22T00:25:25;7.22;;;2.72;;
85917;SDS011;76456;49.310;8.632;2024-03-22T00:27:51;6.15;;;2.70;;
85917;SDS011;76456;49.310;8.632;2024-03-22T00:30:16;6.22;;;3.33;;
85917;SDS011;76456;49.310;8.632;2024-03-22T00:32:42;5.95;;;2.72;;
85917;SDS011;76456;49.310;8.632;2024-03-22T00:35:09;5.63;;;2.78;;
85917;SDS011;76456;49.310;8.632;2024-03-22T00:37:35;5.80;;;2.65;;
85917;SDS011;76456;49.310;8.632;2024-03-22T00:40:00;6.40;;;2.72;;
85917;SDS011;76456;49.310;8.632;2024-03-22T00:42:25;8.30;;;3.13;;
85917;SDS011;76456;49.310;8.632;2024-03-22T00:44:51;7.93;;;3.03;;
85917;SDS011;76456;49.310;8.632;2024-03-22T00:47:16;9.35;;;3.22;;
85917;SDS011;76456;49.310;8.632;2024-03-22T00:49:42;8.38;;;2.90;;
85917;SDS011;76456;49.310;8.632;2024-03-22T00:52:07;9.00;;;3.05;;
85917;SDS011;76456;49.310;8.632;2024-03-22T00:54:33;7.28;;;3.25;;
85917;SDS011;76456;49.310;8.632;2024-03-22T00:56:58;6.80;;;3.25;;
85917;SDS011;76456;49.310;8.632;2024-03-22T00:59:23;5.63;;;3.13;;
85917;SDS011;76456;49.310;8.632;2024-03-22T01:01:48;10.20;;;3.53;;
85917;SDS011;76456;49.310;8.632;2024-03-22T01:04:14;12.95;;;3.42;;
85917;SDS011;76456;49.310;8.632;2024-03-22T01:06:39;6.88;;;2.97;;
85917;SDS011;76456;49.310;8.632;2024-03-22T01:09:05;7.35;;;3.05;;
85917;SDS011;76456;49.310;8.632;2024-03-22T01:11:31;8.77;;;3.22;;
85917;SDS011;76456;49.310;8.632;2024-03-22T01:13:56;6.20;;;3.00;;
85917;SDS011;76456;49.310;8.632;2024-03-22T01:16:21;10.32;;;3.58;;
85917;SDS011;76456;49.310;8.632;2024-03-22T01:18:47;8.90;;;3.97;;
85917;SDS011;76456;49.310;8.632;2024-03-22T01:21:13;8.82;;;3.72;;
85917;SDS011;76456;49.310;8.632;2024-03-22T01:23:38;6.88;;;3.58;;
85917;SDS011;76456;49.310;8.632;2024-03-22T01:26:04;7.38;;;3.63;;
85917;SDS011;76456;49.310;8.632;2024-03-22T01:28:29;9.60;;;4.18;;
85917;SDS011;76456;49.310;8.632;2024-03-22T01:30:55;8.00;;;4.45;;
85917;SDS011;76456;49.310;8.632;2024-03-22T01:33:20;8.85;;;3.92;;
85917;SDS011;76456;49.310;8.632;2024-03-22T01:35:45;15.20;;;5.40;;
85917;SDS011;76456;49.310;8.632;2024-03-22T01:38:11;9.48;;;3.78;;
85917;SDS011;76456;49.310;8.632;2024-03-22T01:40:36;8.27;;;4.32;;
85917;SDS011;76456;49.310;8.632;2024-03-22T01:43:02;10.43;;;4.78;;
85917;SDS011;76456;49.310;8.632;2024-03-22T01:45:27;10.95;;;4.25;;
85917;SDS011;76456;49.310;8.632;2024-03-22T01:47:57;11.95;;;4.53;;
85917;SDS011;76456;49.310;8.632;2024-03-22T01:50:23;8.77;;;4.00;;
85917;SDS011;76456;49.310;8.632;2024-03-22T01:52:48;8.60;;;4.00;;
85917;SDS011;76456;49.310;8.632;2024-03-22T01:55:14;9.50;;;3.97;;
85917;SDS011;76456;49.310;8.632;2024-03-22T01:57:39;7.63;;;4.07;;
85917;SDS011;76456;49.310;8.632;2024-03-22T02:00:05;10.57;;;4.80;;
85917;SDS011;76456;49.310;8.632;2024-03-22T02:02:33;9.55;;;3.97;;
85917;SDS011;76456;49.310;8.632;2024-03-22T02:04:58;11.70;;;4.10;;
85917;SDS011;76456;49.310;8.632;2024-03-22T02:07:24;7.22;;;3.92;;
85917;SDS011;76456;49.310;8.632;2024-03-22T02:09:49;9.07;;;4.68;;
85917;SDS011;76456;49.310;8.632;2024-03-22T02:12:14;8.05;;;4.25;;
85917;SDS011;76456;49.310;8.632;2024-03-22T02:14:41;8.32;;;3.47;;
85917;SDS011;76456;49.310;8.632;2024-03-22T02:17:06;14.43;;;4.25;;
85917;SDS011;76456;49.310;8.632;2024-03-22T02:19:31;10.50;;;3.78;;
85917;SDS011;76456;49.310;8.632;2024-03-22T02:21:57;8.80;;;3.92;;
85917;SDS011;76456;49.310;8.632;2024-03-22T02:24:22;8.82;;;4.22;;
85917;SDS011;76456;49.310;8.632;2024-03-22T02:26:48;12.02;;;4.65;;
85917;SDS011;76456;49.310;8.632;2024-03-22T02:29:13;9.07;;;4.03;;
85917;SDS011;76456;49.310;8.632;2024-03-22T02:31:39;13.27;;;5.18;;
85917;SDS011;76456;49.310;8.632;2024-03-22T02:34:04;8.18;;;3.58;;
85917;SDS011;76456;49.310;8.632;2024-03-22T02:36:29;13.05;;;4.07;;
85917;SDS011;76456;49.310;8.632;2024-03-22T02:38:55;8.13;;;4.13;;
85917;SDS011;76456;49.310;8.632;2024-03-22T02:41:21;11.52;;;5.45;;
85917;SDS011;76456;49.310;8.632;2024-03-22T02:43:46;10.55;;;3.90;;
85917;SDS011;76456;49.310;8.632;2024-03-22T02:46:11;9.32;;;4.07;;
85917;SDS011;76456;49.310;8.632;2024-03-22T02:48:37;8.73;;;3.78;;
85917;SDS011;76456;49.310;8.632;2024-03-22T02:51:02;13.15;;;3.92;;
85917;SDS011;76456;49.310;8.632;2024-03-22T02:53:28;10.02;;;3.92;;
85917;SDS011;76456;49.310;8.632;2024-03-22T02:55:53;7.00;;;3.30;;
85917;SDS011;76456;49.310;8.632;2024-03-22T02:58:20;10.45;;;3.83;;
85917;SDS011;76456;49.310;8.632;2024-03-22T03:00:46;8.18;;;3.90;;
85917;SDS011;76456;49.310;8.632;2024-03-22T03:03:11;8.95;;;3.45;;
85917;SDS011;76456;49.310;8.632;2024-03-22T03:05:36;11.18;;;4.35;;
85917;SDS011;76456;49.310;8.632;2024-03-22T03:08:02;6.00;;;3.05;;
85917;SDS011;76456;49.310;8.632;2024-03-22T03:10:28;9.80;;;3.80;;
85917;SDS011;76456;49.310;8.632;2024-03-22T03:12:54;8.80;;;3.47;;
85917;SDS011;76456;49.310;8.632;2024-03-22T03:15:20;7.75;;;3.72;;
85917;SDS011;76456;49.310;8.632;2024-03-22T03:17:45;6.75;;;3.53;;
85917;SDS011;76456;49.310;8.632;2024-03-22T03:20:11;8.02;;;3.45;;
85917;SDS011;76456;49.310;8.632;2024-03-22T03:22:38;12.75;;;3.83;;
85917;SDS011;76456;49.310;8.632;2024-03-22T03:25:07;7.40;;;3.88;;
85917;SDS011;76456;49.310;8.632;2024-03-22T03:27:33;8.13;;;3.42;;
85917;SDS011;76456;49.310;8.632;2024-03-22T03:29:58;5.18;;;3.00;;
85917;SDS011;76456;49.310;8.632;2024-03-22T03:32:24;7.68;;;2.97;;
85917;SDS011;76456;49.310;8.632;2024-03-22T03:34:50;8.10;;;3.78;;
85917;SDS011;76456;49.310;8.632;2024-03-22T03:37:15;6.85;;;3.17;;
85917;SDS011;76456;49.310;8.632;2024-03-22T03:39:41;5.63;;;3.03;;
85917;SDS011;76456;49.310;8.632;2024-03-22T03:42:06;8.32;;;3.28;;
85917;SDS011;76456;49.310;8.632;2024-03-22T03:44:32;5.82;;;2.67;;
85917;SDS011;76456;49.310;8.632;2024-03-22T03:46:57;9.38;;;2.92;;
85917;SDS011;76456;49.310;8.632;2024-03-22T03:49:22;6.55;;;2.92;;
85917;SDS011;76456;49.310;8.632;2024-03-22T03:51:48;6.70;;;2.78;;
85917;SDS011;76456;49.310;8.632;2024-03-22T03:54:13;7.50;;;3.15;;
85917;SDS011;76456;49.310;8.632;2024-03-22T03:56:38;6.97;;;2.95;;
85917;SDS011;76456;49.310;8.632;2024-03-22T03:59:03;5.72;;;2.58;;
85917;SDS011;76456;49.310;8.632;2024-03-22T04:01:29;7.15;;;3.30;;
85917;SDS011;76456;49.310;8.632;2024-03-22T04:03:54;7.63;;;3.00;;
85917;SDS011;76456;49.310;8.632;2024-03-22T04:06:19;11.35;;;3.33;;
85917;SDS011;76456;49.310;8.632;2024-03-22T04:08:45;7.15;;;2.88;;
85917;SDS011;76456;49.310;8.632;2024-03-22T04:11:10;6.78;;;3.30;;
85917;SDS011;76456;49.310;8.632;2024-03-22T04:13:36;9.38;;;3.45;;
85917;SDS011;76456;49.310;8.632;2024-03-22T04:16:02;6.10;;;3.30;;
85917;SDS011;76456;49.310;8.632;2024-03-22T04:18:27;9.57;;;3.40;;
85917;SDS011;76456;49.310;8.632;2024-03-22T04:20:53;6.72;;;3.00;;
85917;SDS011;76456;49.310;8.632;2024-03-22T04:23:19;6.50;;;3.17;;
85917;SDS011;76456;49.310;8.632;2024-03-22T04:25:55;5.70;;;2.85;;
85917;SDS011;76456;49.310;8.632;2024-03-22T04:28:22;5.70;;;2.63;;
85917;SDS011;76456;49.310;8.632;2024-03-22T04:31:02;6.03;;;2.95;;
85917;SDS011;76456;49.310;8.632;2024-03-22T04:33:32;6.90;;;3.40;;
85917;SDS011;76456;49.310;8.632;2024-03-22T04:35:58;6.15;;;3.40;;
85917;SDS011;76456;49.310;8.632;2024-03-22T04:38:26;5.43;;;3.25;;
85917;SDS011;76456;49.310;8.632;2024-03-22T04:40:52;7.35;;;3.45;;
85917;SDS011;76456;49.310;8.632;2024-03-22T04:43:17;8.43;;;3.50;;
85917;SDS011;76456;49.310;8.632;2024-03-22T04:45:43;7.97;;;3.42;;
85917;SDS011;76456;49.310;8.632;2024-03-22T04:48:09;6.50;;;3.17;;
85917;SDS011;76456;49.310;8.632;2024-03-22T04:50:35;7.07;;;3.63;;
85917;SDS011;76456;49.310;8.632;2024-03-22T04:53:01;6.65;;;3.50;;
85917;SDS011;76456;49.310;8.632;2024-03-22T04:55:27;6.97;;;3.40;;
85917;SDS011;76456;49.310;8.632;2024-03-22T04:57:52;6.68;;;3.55;;
85917;SDS011;76456;49.310;8.632;2024-03-22T05:00:17;5.00;;;3.20;;
85917;SDS011;76456;49.310;8.632;2024-03-22T05:02:43;6.22;;;2.88;;
85917;SDS011;76456;49.310;8.632;2024-03-22T05:05:08;7.45;;;3.20;;
85917;SDS011;76456;49.310;8.632;2024-03-22T05:07:34;10.50;;;3.88;;
85917;SDS011;76456;49.310;8.632;2024-03-22T05:10:00;7.95;;;3.97;;
85917;SDS011;76456;49.310;8.632;2024-03-22T05:12:25;6.45;;;3.67;;
85917;SDS011;76456;49.310;8.632;2024-03-22T05:14:51;7.47;;;2.90;;
85917;SDS011;76456;49.310;8.632;2024-03-22T05:17:16;8.30;;;3.00;;
85917;SDS011;76456;49.310;8.632;2024-03-22T05:19:42;9.32;;;4.05;;
85917;SDS011;76456;49.310;8.632;2024-03-22T05:22:07;8.02;;;3.53;;
85917;SDS011;76456;49.310;8.632;2024-03-22T05:24:32;9.50;;;3.40;;
85917;SDS011;76456;49.310;8.632;2024-03-22T05:26:58;8.18;;;3.58;;
85917;SDS011;76456;49.310;8.632;2024-03-22T05:29:24;7.90;;;4.30;;
85917;SDS011;76456;49.310;8.632;2024-03-22T05:31:50;9.48;;;3.85;;
85917;SDS011;76456;49.310;8.632;2024-03-22T05:34:17;10.15;;;4.45;;
85917;SDS011;76456;49.310;8.632;2024-03-22T05:36:42;10.32;;;4.25;;
85917;SDS011;76456;49.310;8.632;2024-03-22T05:39:08;10.57;;;4.65;;
85917;SDS011;76456;49.310;8.632;2024-03-22T05:41:35;6.97;;;3.83;;
85917;SDS011;76456;49.310;8.632;2024-03-22T05:44:01;7.78;;;4.45;;
85917;SDS011;76456;49.310;8.632;2024-03-22T05:46:27;5.50;;;3.33;;
85917;SDS011;76456;49.310;8.632;2024-03-22T05:48:55;7.35;;;3.85;;
85917;SDS011;76456;49.310;8.632;2024-03-22T05:51:21;10.90;;;4.10;;
85917;SDS011;76456;49.310;8.632;2024-03-22T05:53:46;8.00;;;3.55;;
85917;SDS011;76456;49.310;8.632;2024-03-22T05:56:12;12.85;;;5.05;;
85917;SDS011;76456;49.310;8.632;2024-03-22T05:58:37;10.65;;;3.95;;
85917;SDS011;76456;49.310;8.632;2024-03-22T06:01:02;7.18;;;3.80;;
85917;SDS011;76456;49.310;8.632;2024-03-22T06:03:28;11.10;;;5.40;;
85917;SDS011;76456;49.310;8.632;2024-03-22T06:05:54;8.52;;;3.80;;
85917;SDS011;76456;49.310;8.632;2024-03-22T06:08:25;8.60;;;4.10;;
85917;SDS011;76456;49.310;8.632;2024-03-22T06:10:54;10.15;;;4.00;;
85917;SDS011;76456;49.310;8.632;2024-03-22T06:13:20;7.00;;;4.20;;
85917;SDS011;76456;49.310;8.632;2024-03-22T06:15:48;8.88;;;3.80;;
85917;SDS011;76456;49.310;8.632;2024-03-22T06:18:14;7.80;;;3.63;;
85917;SDS011;76456;49.310;8.632;2024-03-22T06:20:39;9.75;;;4.13;;
85917;SDS011;76456;49.310;8.632;2024-03-22T06:23:05;7.43;;;3.35;;
85917;SDS011;76456;49.310;8.632;2024-03-22T06:25:30;7.15;;;3.30;;
85917;SDS011;76456;49.310;8.632;2024-03-22T06:27:55;7.57;;;3.42;;
85917;SDS011;76456;49.310;8.632;2024-03-22T06:30:21;6.80;;;3.63;;
85917;SDS011;76456;49.310;8.632;2024-03-22T06:32:46;6.88;;;3.60;;
85917;SDS011;76456;49.310;8.632;2024-03-22T06:35:12;9.15;;;3.90;;
85917;SDS011;76456;49.310;8.632;2024-03-22T06:37:38;7.22;;;3.40;;
85917;SDS011;76456;49.310;8.632;2024-03-22T06:40:05;9.75;;;4.45;;
85917;SDS011;76456;49.310;8.632;2024-03-22T06:42:32;9.25;;;4.30;;
85917;SDS011;76456;49.310;8.632;2024-03-22T06:44:57;8.02;;;3.90;;
85917;SDS011;76456;49.310;8.632;2024-03-22T06:47:22;8.20;;;3.90;;
85917;SDS011;76456;49.310;8.632;2024-03-22T06:49:48;7.45;;;3.22;;
85917;SDS011;76456;49.310;8.632;2024-03-22T06:52:14;8.00;;;3.75;;
85917;SDS011;76456;49.310;8.632;2024-03-22T06:54:40;8.68;;;4.45;;
85917;SDS011;76456;49.310;8.632;2024-03-22T06:57:05;9.95;;;4.47;;
85917;SDS011;76456;49.310;8.632;2024-03-22T06:59:31;11.45;;;3.97;;
85917;SDS011;76456;49.310;8.632;2024-03-22T07:01:57;11.25;;;4.47;;
85917;SDS011;76456;49.310;8.632;2024-03-22T07:04:22;7.53;;;3.80;;
85917;SDS011;76456;49.310;8.632;2024-03-22T07:06:47;8.15;;;4.55;;
85917;SDS011;76456;49.310;8.632;2024-03-22T07:09:13;8.20;;;4.20;;
85917;SDS011;76456;49.310;8.632;2024-03-22T07:11:38;7.13;;;4.10;;
85917;SDS011;76456;49.310;8.632;2024-03-22T07:14:04;9.07;;;4.20;;
85917;SDS011;76456;49.310;8.632;2024-03-22T07:16:29;10.05;;;4.35;;
85917;SDS011;76456;49.310;8.632;2024-03-22T07:18:55;8.65;;;4.93;;
85917;SDS011;76456;49.310;8.632;2024-03-22T07:21:20;10.80;;;4.15;;
85917;SDS011;76456;49.310;8.632;2024-03-22T07:23:46;8.60;;;4.97;;
85917;SDS011;76456;49.310;8.632;2024-03-22T07:26:11;8.68;;;4.78;;
85917;SDS011;76456;49.310;8.632;2024-03-22T07:28:37;7.90;;;4.60;;
85917;SDS011;76456;49.310;8.632;2024-03-22T07:31:02;10.88;;;4.30;;
85917;SDS011;76456;49.310;8.632;2024-03-22T07:33:28;9.40;;;4.50;;
85917;SDS011;76456;49.310;8.632;2024-03-22T07:35:53;10.55;;;5.57;;
85917;SDS011;76456;49.310;8.632;2024-03-22T07:38:19;11.38;;;5.40;;
85917;SDS011;76456;49.310;8.632;2024-03-22T07:40:45;13.15;;;5.32;;
85917;SDS011;76456;49.310;8.632;2024-03-22T07:43:10;9.85;;;5.32;;
85917;SDS011;76456;49.310;8.632;2024-03-22T07:45:36;10.85;;;5.18;;
85917;SDS011;76456;49.310;8.632;2024-03-22T07:48:02;9.32;;;5.40;;
85917;SDS011;76456;49.310;8.632;2024-03-22T07:50:27;8.43;;;4.93;;
85917;SDS011;76456;49.310;8.632;2024-03-22T07:52:53;11.13;;;5.43;;
85917;SDS011;76456;49.310;8.632;2024-03-22T07:55:18;8.60;;;4.63;;
85917;SDS011;76456;49.310;8.632;2024-03-22T07:57:44;9.25;;;5.13;;
85917;SDS011;76456;49.310;8.632;2024-03-22T08:00:09;12.38;;;4.72;;
85917;SDS011;76456;49.310;8.632;2024-03-22T08:02:35;8.13;;;4.85;;
85917;SDS011;76456;49.310;8.632;2024-03-22T08:05:01;9.32;;;4.93;;
85917;SDS011;76456;49.310;8.632;2024-03-22T08:07:27;8.10;;;4.10;;
85917;SDS011;76456;49.310;8.632;2024-03-22T08:09:52;7.45;;;4.60;;
85917;SDS011;76456;49.310;8.632;2024-03-22T08:12:18;7.05;;;4.40;;
85917;SDS011;76456;49.310;8.632;2024-03-22T08:14:44;8.43;;;4.70;;
85917;SDS011;76456;49.310;8.632;2024-03-22T08:17:10;7.90;;;4.72;;
85917;SDS011;76456;49.310;8.632;2024-03-22T08:19:36;7.45;;;5.00;;
85917;SDS011;76456;49.310;8.632;2024-03-22T08:22:02;7.13;;;4.30;;
85917;SDS011;76456;49.310;8.632;2024-03-22T08:24:27;9.57;;;4.15;;
85917;SDS011;76456;49.310;8.632;2024-03-22T08:26:52;11.27;;;4.40;;
85917;SDS011;76456;49.310;8.632;2024-03-22T08:29:18;8.75;;;4.55;;
85917;SDS011;76456;49.310;8.632;2024-03-22T08:31:44;6.90;;;4.35;;
85917;SDS011;76456;49.310;8.632;2024-03-22T08:34:09;8.85;;;4.97;;
85917;SDS011;76456;49.310;8.632;2024-03-22T08:36:35;8.57;;;4.38;;
85917;SDS011;76456;49.310;8.632;2024-03-22T08:39:00;7.90;;;4.20;;
85917;SDS011;76456;49.310;8.632;2024-03-22T08:41:26;7.97;;;4.38;;
85917;SDS011;76456;49.310;8.632;2024-03-22T08:43:51;8.55;;;4.50;;
85917;SDS011;76456;49.310;8.632;2024-03-22T08:46:16;9.05;;;4.75;;
85917;SDS011;76456;49.310;8.632;2024-03-22T08:48:42;7.53;;;3.85;;
85917;SDS011;76456;49.310;8.632;2024-03-22T08:51:07;7.97;;;3.75;;
85917;SDS011;76456;49.310;8.632;2024-03-22T08:53:32;6.97;;;4.38;;
85917;SDS011;76456;49.310;8.632;2024-03-22T08:55:58;8.35;;;4.30;;
85917;SDS011;76456;49.310;8.632;2024-03-22T08:58:23;6.13;;;4.18;;
85917;SDS011;76456;49.310;8.632;2024-03-22T09:00:49;8.32;;;3.40;;
85917;SDS011;76456;49.310;8.632;2024-03-22T09:03:14;6.28;;;3.05;;
85917;SDS011;76456;49.310;8.632;2024-03-22T09:05:40;5.35;;;3.40;;
85917;SDS011;76456;49.310;8.632;2024-03-22T09:08:06;6.57;;;3.03;;
85917;SDS011;76456;49.310;8.632;2024-03-22T09:10:31;7.43;;;3.20;;
85917;SDS011;76456;49.310;8.632;2024-03-22T09:12:56;4.97;;;3.22;;
85917;SDS011;76456;49.310;8.632;2024-03-22T09:15:22;6.43;;;3.67;;
85917;SDS011;76456;49.310;8.632;2024-03-22T09:17:48;6.38;;;3.42;;
85917;SDS011;76456;49.310;8.632;2024-03-22T09:20:13;5.88;;;3.70;;
85917;SDS011;76456;49.310;8.632;2024-03-22T09:22:39;7.05;;;3.78;;
85917;SDS011;76456;49.310;8.632;2024-03-22T09:25:04;5.00;;;3.10;;
85917;SDS011;76456;49.310;8.632;2024-03-22T09:27:30;6.22;;;3.50;;
85917;SDS011;76456;49.310;8.632;2024-03-22T09:29:57;9.90;;;3.55;;
85917;SDS011;76456;49.310;8.632;2024-03-22T09:32:22;8.73;;;3.13;;
85917;SDS011;76456;49.310;8.632;2024-03-22T09:34:48;7.95;;;3.17;;
85917;SDS011;76456;49.310;8.632;2024-03-22T09:37:15;6.70;;;3.20;;
85917;SDS011;76456;49.310;8.632;2024-03-22T09:39:40;7.10;;;3.85;;
85917;SDS011;76456;49.310;8.632;2024-03-22T09:42:06;5.63;;;3.13;;
85917;SDS011;76456;49.310;8.632;2024-03-22T09:44:32;7.53;;;3.58;;
85917;SDS011;76456;49.310;8.632;2024-03-22T09:46:57;6.20;;;3.70;;
85917;SDS011;76456;49.310;8.632;2024-03-22T09:49:24;6.78;;;2.58;;
85917;SDS011;76456;49.310;8.632;2024-03-22T09:51:50;6.70;;;2.95;;
85917;SDS011;76456;49.310;8.632;2024-03-22T09:54:17;5.80;;;2.75;;
85917;SDS011;76456;49.310;8.632;2024-03-22T09:56:42;5.40;;;2.80;;
85917;SDS011;76456;49.310;8.632;2024-03-22T09:59:09;4.88;;;2.97;;
85917;SDS011;76456;49.310;8.632;2024-03-22T10:01:37;5.10;;;2.83;;
85917;SDS011;76456;49.310;8.632;2024-03-22T10:04:05;5.28;;;3.10;;
85917;SDS011;76456;49.310;8.632;2024-03-22T10:06:30;7.15;;;3.30;;
85917;SDS011;76456;49.310;8.632;2024-03-22T10:08:59;9.00;;;3.45;;
85917;SDS011;76456;49.310;8.632;2024-03-22T10:11:26;5.07;;;2.83;;
85917;SDS011;76456;49.310;8.632;2024-03-22T10:13:52;6.13;;;2.80;;
85917;SDS011;76456;49.310;8.632;2024-03-22T10:16:17;4.38;;;2.33;;
85917;SDS011;76456;49.310;8.632;2024-03-22T10:18:42;4.47;;;2.95;;
85917;SDS011;76456;49.310;8.632;2024-03-22T10:21:08;5.28;;;2.45;;
85917;SDS011;76456;49.310;8.632;2024-03-22T10:23:33;4.72;;;2.63;;
85917;SDS011;76456;49.310;8.632;2024-03-22T10:25:59;4.15;;;2.97;;
85917;SDS011;76456;49.310;8.632;2024-03-22T10:28:25;6.55;;;2.67;;
85917;SDS011;76456;49.310;8.632;2024-03-22T10:30:51;6.85;;;2.90;;
85917;SDS011;76456;49.310;8.632;2024-03-22T10:33:20;3.80;;;2.35;;
85917;SDS011;76456;49.310;8.632;2024-03-22T10:35:54;6.72;;;3.00;;
85917;SDS011;76456;49.310;8.632;2024-03-22T10:38:20;4.82;;;3.25;;
85917;SDS011;76456;49.310;8.632;2024-03-22T10:40:46;6.80;;;3.63;;
85917;SDS011;76456;49.310;8.632;2024-03-22T10:43:13;5.53;;;3.58;;
85917;SDS011;76456;49.310;8.632;2024-03-22T10:45:39;5.43;;;3.00;;
85917;SDS011;76456;49.310;8.632;2024-03-22T10:48:07;4.75;;;3.20;;
85917;SDS011;76456;49.310;8.632;2024-03-22T10:50:34;5.50;;;3.78;;
85917;SDS011;76456;49.310;8.632;2024-03-22T10:53:07;5.28;;;3.60;;
85917;SDS011;76456;49.310;8.632;2024-03-22T10:55:44;6.72;;;3.80;;
85917;SDS011;76456;49.310;8.632;2024-03-22T10:58:16;5.93;;;3.65;;
85917;SDS011;76456;49.310;8.632;2024-03-22T11:00:42;7.60;;;3.70;;
85917;SDS011;76456;49.310;8.632;2024-03-22T11:03:08;6.25;;;3.25;;
85917;SDS011;76456;49.310;8.632;2024-03-22T11:05:34;6.18;;;3.53;;
85917;SDS011;76456;49.310;8.632;2024-03-22T11:10:28;6.45;;;3.75;;
85917;SDS011;76456;49.310;8.632;2024-03-22T11:12:55;4.88;;;3.33;;
85917;SDS011;76456;49.310;8.632;2024-03-22T11:15:21;6.50;;;3.05;;
85917;SDS011;76456;49.310;8.632;2024-03-22T11:17:47;5.32;;;3.08;;
85917;SDS011;76456;49.310;8.632;2024-03-22T11:20:14;4.60;;;2.75;;
85917;SDS011;76456;49.310;8.632;2024-03-22T11:22:40;5.22;;;2.85;;
85917;SDS011;76456;49.310;8.632;2024-03-22T11:25:06;5.53;;;3.03;;
85917;SDS011;76456;49.310;8.632;2024-03-22T11:27:32;5.95;;;2.95;;
85917;SDS011;76456;49.310;8.632;2024-03-22T11:29:57;5.63;;;3.10;;
85917;SDS011;76456;49.310;8.632;2024-03-22T11:32:23;4.85;;;3.20;;
85917;SDS011;76456;49.310;8.632;2024-03-22T11:34:49;5.40;;;2.42;;
85917;SDS011;76456;49.310;8.632;2024-03-22T11:37:14;7.35;;;3.65;;
85917;SDS011;76456;49.310;8.632;2024-03-22T11:39:40;5.45;;;2.67;;
85917;SDS011;76456;49.310;8.632;2024-03-22T11:42:05;7.40;;;3.22;;
85917;SDS011;76456;49.310;8.632;2024-03-22T11:44:33;6.70;;;3.17;;
85917;SDS011;76456;49.310;8.632;2024-03-22T11:47:02;4.40;;;2.60;;
85917;SDS011;76456;49.310;8.632;2024-03-22T11:49:28;5.32;;;2.90;;
85917;SDS011;76456;49.310;8.632;2024-03-22T11:51:55;7.53;;;3.15;;
85917;SDS011;76456;49.310;8.632;2024-03-22T11:54:21;3.70;;;1.92;;
85917;SDS011;76456;49.310;8.632;2024-03-22T11:56:48;3.75;;;2.38;;
85917;SDS011;76456;49.310;8.632;2024-03-22T11:59:13;4.45;;;2.20;;
85917;SDS011;76456;49.310;8.632;2024-03-22T12:01:40;5.63;;;2.38;;
85917;SDS011;76456;49.310;8.632;2024-03-22T12:04:05;3.05;;;1.85;;
85917;SDS011;76456;49.310;8.632;2024-03-22T12:06:33;4.00;;;2.20;;
85917;SDS011;76456;49.310;8.632;2024-03-22T12:09:00;7.90;;;2.33;;
85917;SDS011;76456;49.310;8.632;2024-03-22T12:11:25;5.28;;;2.42;;
85917;SDS011;76456;49.310;8.632;2024-03-22T12:13:50;5.60;;;3.08;;
85917;SDS011;76456;49.310;8.632;2024-03-22T12:16:16;6.00;;;2.83;;
85917;SDS011;76456;49.310;8.632;2024-03-22T12:18:41;4.13;;;2.40;;
85917;SDS011;76456;49.310;8.632;2024-03-22T12:21:06;4.80;;;2.72;;
85917;SDS011;76456;49.310;8.632;2024-03-22T12:23:32;3.88;;;2.22;;
85917;SDS011;76456;49.310;8.632;2024-03-22T12:25:57;4.65;;;2.63;;
85917;SDS011;76456;49.310;8.632;2024-03-22T12:28:23;6.45;;;2.50;;
85917;SDS011;76456;49.310;8.632;2024-03-22T12:30:51;5.50;;;2.63;;
85917;SDS011;76456;49.310;8.632;2024-03-22T12:33:17;6.93;;;2.47;;
85917;SDS011;76456;49.310;8.632;2024-03-22T12:35:43;4.90;;;2.17;;
85917;SDS011;76456;49.310;8.632;2024-03-22T12:38:08;6.40;;;2.38;;
85917;SDS011;76456;49.310;8.632;2024-03-22T12:40:38;3.33;;;1.58;;
85917;SDS011;76456;49.310;8.632;2024-03-22T12:43:04;5.18;;;2.60;;
85917;SDS011;76456;49.310;8.632;2024-03-22T12:45:30;5.55;;;2.65;;
85917;SDS011;76456;49.310;8.632;2024-03-22T12:47:57;4.45;;;2.88;;
85917;SDS011;76456;49.310;8.632;2024-03-22T12:50:23;4.65;;;2.55;;
85917;SDS011;76456;49.310;8.632;2024-03-22T12:52:48;3.00;;;2.47;;
85917;SDS011;76456;49.310;8.632;2024-03-22T12:55:13;3.35;;;2.75;;
85917;SDS011;76456;49.310;8.632;2024-03-22T12:57:39;4.25;;;2.40;;
85917;SDS011;76456;49.310;8.632;2024-03-22T13:00:06;3.83;;;2.60;;
85917;SDS011;76456;49.310;8.632;2024-03-22T13:02:38;5.13;;;2.38;;
85917;SDS011;76456;49.310;8.632;2024-03-22T13:05:04;4.25;;;2.47;;
85917;SDS011;76456;49.310;8.632;2024-03-22T13:07:30;5.38;;;2.17;;
85917;SDS011;76456;49.310;8.632;2024-03-22T13:09:55;4.30;;;2.38;;
85917;SDS011;76456;49.310;8.632;2024-03-22T13:12:20;5.65;;;2.35;;
85917;SDS011;76456;49.310;8.632;2024-03-22T13:14:46;7.03;;;3.00;;
85917;SDS011;76456;49.310;8.632;2024-03-22T13:17:12;4.38;;;2.45;;
85917;SDS011;76456;49.310;8.632;2024-03-22T13:19:38;4.53;;;2.15;;
85917;SDS011;76456;49.310;8.632;2024-03-22T13:22:03;4.07;;;1.90;;
85917;SDS011;76456;49.310;8.632;2024-03-22T13:24:29;4.30;;;1.30;;
85917;SDS011;76456;49.310;8.632;2024-03-22T13:26:55;2.50;;;1.25;;
85917;SDS011;76456;49.310;8.632;2024-03-22T13:29:20;2.75;;;1.75;;
85917;SDS011;76456;49.310;8.632;2024-03-22T13:31:45;2.25;;;1.58;;
85917;SDS011;76456;49.310;8.632;2024-03-22T13:34:11;2.50;;;1.60;;
85917;SDS011;76456;49.310;8.632;2024-03-22T13:36:36;4.35;;;1.67;;
85917;SDS011;76456;49.310;8.632;2024-03-22T13:39:03;4.10;;;1.55;;
85917;SDS011;76456;49.310;8.632;2024-03-22T13:41:28;3.97;;;1.70;;
85917;SDS011;76456;49.310;8.632;2024-03-22T13:43:54;3.38;;;1.85;;
85917;SDS011;76456;49.310;8.632;2024-03-22T13:46:19;4.18;;;1.80;;
85917;SDS011;76456;49.310;8.632;2024-03-22T13:48:45;5.93;;;2.45;;
85917;SDS011;76456;49.310;8.632;2024-03-22T13:51:10;3.72;;;1.67;;
85917;SDS011;76456;49.310;8.632;2024-03-22T13:53:36;3.08;;;1.55;;
85917;SDS011;76456;49.310;8.632;2024-03-22T13:56:02;3.33;;;1.50;;
85917;SDS011;76456;49.310;8.632;2024-03-22T13:58:28;4.15;;;1.75;;
85917;SDS011;76456;49.310;8.632;2024-03-22T14:00:53;3.05;;;1.52;;
85917;SDS011;76456;49.310;8.632;2024-03-22T14:03:19;4.88;;;1.95;;
85917;SDS011;76456;49.310;8.632;2024-03-22T14:05:45;4.10;;;1.67;;
85917;SDS011;76456;49.310;8.632;2024-03-22T14:08:10;3.72;;;2.08;;
85917;SDS011;76456;49.310;8.632;2024-03-22T14:10:36;2.75;;;1.45;;
85917;SDS011;76456;49.310;8.632;2024-03-22T14:13:02;3.95;;;1.60;;
85917;SDS011;76456;49.310;8.632;2024-03-22T14:15:28;3.80;;;1.73;;
85917;SDS011;76456;49.310;8.632;2024-03-22T14:17:57;4.93;;;1.95;;
85917;SDS011;76456;49.310;8.632;2024-03-22T14:20:23;2.67;;;1.50;;
85917;SDS011;76456;49.310;8.632;2024-03-22T14:22:49;2.75;;;1.67;;
85917;SDS011;76456;49.310;8.632;2024-03-22T14:25:16;3.53;;;1.55;;
85917;SDS011;76456;49.310;8.632;2024-03-22T14:27:41;4.22;;;2.13;;
85917;SDS011;76456;49.310;8.632;2024-03-22T14:30:10;3.33;;;1.63;;
85917;SDS011;76456;49.310;8.632;2024-03-22T14:32:38;2.10;;;1.45;;
85917;SDS011;76456;49.310;8.632;2024-03-22T14:35:04;4.53;;;1.50;;
85917;SDS011;76456;49.310;8.632;2024-03-22T14:37:30;3.22;;;1.90;;
85917;SDS011;76456;49.310;8.632;2024-03-22T14:39:56;3.47;;;1.77;;